createdAt,value
2018-06-08T00:02:04.199Z,12.67
2018-06-08T00:04:32.518Z,11.53
2018-06-08T00:07:00.795Z,11.80
2018-06-08T00:09:29.018Z,12.50
2018-06-08T00:11:57.327Z,11.17
2018-06-08T00:14:25.572Z,13.03
2018-06-08T00:16:53.846Z,11.63
2018-06-08T00:19:22.085Z,12.87
2018-06-08T00:21:50.447Z,11.60
2018-06-08T00:24:18.714Z,12.93
2018-06-08T00:26:47.026Z,11.77
2018-06-08T00:29:15.274Z,12.23
2018-06-08T00:31:43.522Z,12.87
2018-06-08T00:34:11.861Z,13.07
2018-06-08T00:36:40.146Z,12.47
2018-06-08T00:39:09.650Z,11.47
2018-06-08T00:41:37.878Z,13.40
2018-06-08T00:44:06.140Z,12.43
2018-06-08T00:46:34.333Z,12.83
2018-06-08T00:49:02.607Z,13.37
2018-06-08T00:51:31.698Z,12.67
2018-06-08T00:53:59.943Z,13.43
2018-06-08T00:56:39.633Z,13.13
2018-06-08T00:59:12.812Z,11.63
2018-06-08T01:01:41.056Z,11.80
2018-06-08T01:04:09.401Z,12.87
2018-06-08T01:06:37.698Z,11.73
2018-06-08T01:09:08.614Z,12.37
2018-06-08T01:11:37.066Z,12.17
2018-06-08T01:14:05.445Z,12.00
2018-06-08T01:16:34.664Z,13.27
2018-06-08T01:19:02.955Z,13.47
2018-06-08T01:21:31.284Z,11.70
2018-06-08T01:23:59.554Z,12.37
2018-06-08T01:26:27.793Z,12.17
2018-06-08T01:28:56.042Z,12.03
2018-06-08T01:31:24.301Z,11.60
2018-06-08T01:33:52.566Z,11.97
2018-06-08T01:36:20.815Z,12.63
2018-06-08T01:38:49.101Z,11.00
2018-06-08T01:41:17.455Z,11.57
2018-06-08T01:43:45.675Z,12.67
2018-06-08T01:46:13.961Z,11.67
2018-06-08T01:48:42.231Z,13.67
2018-06-08T01:51:10.478Z,12.97
2018-06-08T01:53:38.806Z,11.73
2018-06-08T01:56:07.044Z,13.03
2018-06-08T01:58:35.362Z,12.93
2018-06-08T02:01:03.603Z,12.63
2018-06-08T02:03:31.894Z,13.17
2018-06-08T02:06:00.194Z,12.40
2018-06-08T02:08:28.426Z,12.60
2018-06-08T02:10:56.613Z,13.33
2018-06-08T02:13:24.953Z,13.03
2018-06-08T02:15:53.179Z,12.60
2018-06-08T02:18:21.442Z,13.43
2018-06-08T02:20:49.723Z,11.87
2018-06-08T02:23:18.102Z,12.80
2018-06-08T02:25:46.370Z,12.67
2018-06-08T02:28:14.665Z,13.53
2018-06-08T02:30:42.910Z,11.90
2018-06-08T02:33:11.180Z,12.50
2018-06-08T02:35:39.445Z,13.00
2018-06-08T02:38:07.744Z,12.33
2018-06-08T02:40:35.994Z,12.37
2018-06-08T02:43:04.286Z,12.07
2018-06-08T02:45:32.679Z,13.10
2018-06-08T02:48:00.958Z,12.83
2018-06-08T02:50:29.243Z,12.87
2018-06-08T02:52:57.490Z,12.93
2018-06-08T02:55:26.026Z,14.07
2018-06-08T02:57:54.255Z,13.47
2018-06-08T03:00:22.301Z,13.53
2018-06-08T03:02:50.595Z,13.30
2018-06-08T03:05:19.436Z,13.83
2018-06-08T03:07:47.711Z,15.40
2018-06-08T03:10:15.958Z,12.20
2018-06-08T03:12:44.232Z,13.00
2018-06-08T03:15:12.534Z,13.90
2018-06-08T03:17:40.878Z,13.03
2018-06-08T03:20:09.122Z,14.10
2018-06-08T03:22:37.360Z,14.97
2018-06-08T03:25:05.691Z,14.53
2018-06-08T03:27:34.092Z,13.43
2018-06-08T03:30:02.350Z,14.40
2018-06-08T03:32:30.584Z,13.67
2018-06-08T03:34:59.886Z,13.13
2018-06-08T03:37:28.199Z,13.70
2018-06-08T03:39:56.454Z,14.33
2018-06-08T03:42:24.743Z,13.77
2018-06-08T03:44:53.006Z,13.07
2018-06-08T03:47:21.306Z,14.00
2018-06-08T03:49:49.559Z,13.33
2018-06-08T03:52:17.842Z,13.43
2018-06-08T03:54:46.111Z,13.57
2018-06-08T03:57:14.395Z,12.57
2018-06-08T03:59:42.657Z,14.07
2018-06-08T04:02:10.880Z,13.43
2018-06-08T04:04:39.118Z,14.20
2018-06-08T04:07:07.396Z,13.83
2018-06-08T04:09:35.733Z,15.03
2018-06-08T04:12:04.052Z,14.60
2018-06-08T04:14:32.411Z,12.27
2018-06-08T04:17:00.727Z,14.90
2018-06-08T04:19:29.034Z,14.87
2018-06-08T04:21:57.499Z,13.97
2018-06-08T04:24:25.736Z,15.83
2018-06-08T04:26:54.004Z,15.67
2018-06-08T04:29:22.325Z,16.33
2018-06-08T04:31:50.582Z,15.23
2018-06-08T04:34:18.813Z,15.43
2018-06-08T04:36:47.220Z,18.73
2018-06-08T04:39:15.501Z,15.43
2018-06-08T04:41:43.830Z,16.37
2018-06-08T04:44:12.592Z,16.40
2018-06-08T04:46:41.017Z,16.83
2018-06-08T04:49:09.349Z,15.60
2018-06-08T04:51:37.698Z,15.90
2018-06-08T04:54:05.980Z,18.03
2018-06-08T04:56:34.315Z,17.07
2018-06-08T04:59:02.806Z,18.60
2018-06-08T05:01:31.286Z,16.07
2018-06-08T05:03:59.806Z,18.87
2018-06-08T05:06:28.194Z,16.33
2018-06-08T05:08:56.482Z,17.13
2018-06-08T05:11:24.835Z,16.90
2018-06-08T05:13:53.111Z,18.00
2018-06-08T05:16:22.047Z,17.27
2018-06-08T05:18:50.411Z,17.60
2018-06-08T05:21:18.923Z,16.80
2018-06-08T05:23:47.295Z,17.70
2018-06-08T05:26:15.686Z,16.20
2018-06-08T05:28:44.148Z,19.03
2018-06-08T05:31:12.353Z,17.47
2018-06-08T05:33:40.654Z,14.87
2018-06-08T05:36:08.968Z,16.87
2018-06-08T05:38:37.344Z,17.27
2018-06-08T05:41:05.703Z,17.30
2018-06-08T05:43:33.795Z,16.40
2018-06-08T05:46:02.079Z,15.43
2018-06-08T05:48:30.379Z,17.83
2018-06-08T05:50:58.621Z,15.60
2018-06-08T05:53:26.848Z,15.43
2018-06-08T05:55:55.090Z,17.40
2018-06-08T05:58:23.322Z,16.50
2018-06-08T06:00:51.563Z,15.03
2018-06-08T06:03:19.787Z,14.93
2018-06-08T06:05:48.028Z,15.73
2018-06-08T06:08:16.335Z,15.33
2018-06-08T06:10:44.542Z,14.33
2018-06-08T06:13:12.818Z,15.27
2018-06-08T06:15:41.027Z,13.17
2018-06-08T06:18:09.266Z,15.37
2018-06-08T06:20:37.520Z,16.30
2018-06-08T06:23:05.758Z,15.20
2018-06-08T06:25:34.006Z,12.23
2018-06-08T06:28:02.249Z,14.10
2018-06-08T06:30:30.477Z,13.07
2018-06-08T06:32:58.682Z,13.90
2018-06-08T06:35:26.860Z,12.90
2018-06-08T06:37:55.172Z,12.07
2018-06-08T06:40:23.376Z,11.50
2018-06-08T06:42:51.625Z,12.00
2018-06-08T06:45:19.953Z,12.60
2018-06-08T06:47:48.189Z,13.50
2018-06-08T06:50:16.405Z,12.77
2018-06-08T06:52:44.670Z,12.67
2018-06-08T06:55:12.885Z,12.70
2018-06-08T06:57:41.148Z,12.20
2018-06-08T07:00:09.517Z,12.40
2018-06-08T07:02:37.805Z,12.23
2018-06-08T07:05:06.224Z,12.23
2018-06-08T07:07:34.476Z,12.73
2018-06-08T07:10:02.739Z,12.07
2018-06-08T07:12:31.032Z,11.83
2018-06-08T07:14:59.363Z,20.87
2018-06-08T07:17:28.354Z,12.33
2018-06-08T07:19:56.778Z,11.00
2018-06-08T07:22:25.023Z,12.83
2018-06-08T07:24:53.302Z,11.20
2018-06-08T07:27:21.632Z,11.93
2018-06-08T07:29:49.882Z,11.40
2018-06-08T07:32:18.150Z,11.07
2018-06-08T07:34:46.406Z,11.50
2018-06-08T07:37:14.554Z,11.23
2018-06-08T07:39:42.848Z,10.87
2018-06-08T07:42:11.099Z,11.33
2018-06-08T07:44:39.371Z,11.00
2018-06-08T07:47:07.677Z,10.07
2018-06-08T07:49:35.888Z,10.07
2018-06-08T07:52:04.202Z,10.33
2018-06-08T07:54:32.650Z,9.43
2018-06-08T07:57:03.042Z,11.27
2018-06-08T07:59:31.536Z,10.63
2018-06-08T08:02:00.027Z,9.60
2018-06-08T08:04:28.352Z,9.70
2018-06-08T08:06:56.833Z,8.80
2018-06-08T08:09:25.087Z,9.00
2018-06-08T08:11:53.390Z,8.60
2018-06-08T08:14:21.639Z,9.57
2018-06-08T08:16:49.873Z,9.03
2018-06-08T08:19:18.209Z,9.17
2018-06-08T08:21:46.484Z,9.17
2018-06-08T08:24:15.046Z,8.80
2018-06-08T08:26:43.386Z,8.50
2018-06-08T08:29:11.411Z,9.10
2018-06-08T08:31:39.610Z,9.87
2018-06-08T08:34:07.896Z,9.43
2018-06-08T08:36:36.222Z,10.30
2018-06-08T08:39:07.707Z,9.07
2018-06-08T08:41:35.945Z,9.47
2018-06-08T08:44:05.090Z,8.43
2018-06-08T08:46:33.435Z,9.43
2018-06-08T08:49:01.872Z,8.63
2018-06-08T08:51:30.253Z,9.33
2018-06-08T08:53:58.542Z,9.63
2018-06-08T08:56:26.860Z,10.80
2018-06-08T08:58:55.111Z,11.03
2018-06-08T09:01:23.374Z,11.03
2018-06-08T09:03:51.978Z,10.47
2018-06-08T09:06:20.229Z,10.97
2018-06-08T09:08:48.506Z,9.83
2018-06-08T09:11:16.710Z,12.03
2018-06-08T09:13:45.054Z,11.50
2018-06-08T09:16:13.275Z,12.70
2018-06-08T09:18:41.514Z,12.83
2018-06-08T09:21:09.753Z,12.37
2018-06-08T09:23:37.971Z,12.20
2018-06-08T09:26:06.184Z,11.03
2018-06-08T09:28:34.462Z,11.80
2018-06-08T09:31:02.750Z,10.73
2018-06-08T09:33:31.719Z,11.13
2018-06-08T09:36:00.038Z,10.77
2018-06-08T09:38:28.282Z,10.13
2018-06-08T09:40:56.589Z,11.20
2018-06-08T09:43:24.835Z,9.97
2018-06-08T09:45:53.140Z,11.90
2018-06-08T09:48:21.317Z,11.53
2018-06-08T09:50:49.539Z,11.63
2018-06-08T09:53:17.777Z,10.97
2018-06-08T09:55:46.056Z,10.93
2018-06-08T09:58:14.322Z,11.87
2018-06-08T10:00:43.330Z,13.00
2018-06-08T10:03:11.664Z,11.43
2018-06-08T10:05:39.870Z,11.87
2018-06-08T10:08:08.275Z,13.20
2018-06-08T10:10:36.578Z,11.33
2018-06-08T10:13:04.824Z,12.50
2018-06-08T10:15:33.075Z,13.27
2018-06-08T10:18:01.090Z,11.53
2018-06-08T10:20:29.388Z,11.90
2018-06-08T10:22:57.621Z,9.93
2018-06-08T10:25:25.884Z,10.73
2018-06-08T10:27:54.114Z,10.47
2018-06-08T10:30:22.357Z,11.53
2018-06-08T10:32:50.593Z,10.50
2018-06-08T10:35:18.803Z,10.40
2018-06-08T10:37:47.034Z,10.40
2018-06-08T10:40:15.258Z,10.80
2018-06-08T10:42:43.519Z,11.70
2018-06-08T10:45:11.750Z,9.80
2018-06-08T10:47:40.035Z,8.97
2018-06-08T10:50:08.282Z,9.50
2018-06-08T10:52:36.540Z,9.87
2018-06-08T10:55:05.050Z,9.90
2018-06-08T10:57:33.361Z,9.73
2018-06-08T11:00:01.646Z,10.03
2018-06-08T11:02:30.068Z,9.23
2018-06-08T11:04:58.323Z,9.50
2018-06-08T11:07:26.598Z,10.27
2018-06-08T11:09:54.869Z,9.50
2018-06-08T11:12:23.135Z,10.20
2018-06-08T11:14:51.410Z,9.33
2018-06-08T11:17:19.694Z,9.93
2018-06-08T11:19:47.996Z,8.70
2018-06-08T11:22:16.218Z,7.87
2018-06-08T11:24:44.566Z,8.90
2018-06-08T11:27:12.888Z,6.80
2018-06-08T11:29:41.178Z,7.77
2018-06-08T11:32:09.434Z,7.60
2018-06-08T11:34:37.666Z,7.40
2018-06-08T11:37:05.915Z,7.73
2018-06-08T11:39:41.428Z,7.80
2018-06-08T11:42:09.866Z,7.00
2018-06-08T11:44:38.090Z,7.70
2018-06-08T11:47:06.365Z,7.33
2018-06-08T11:49:34.594Z,6.80
2018-06-08T11:52:02.883Z,7.83
2018-06-08T11:54:31.153Z,7.47
2018-06-08T11:56:59.471Z,7.47
2018-06-08T11:59:27.725Z,7.57
2018-06-08T12:01:55.978Z,7.37
2018-06-08T12:04:24.246Z,8.10
2018-06-08T12:06:52.545Z,7.77
2018-06-08T12:09:20.812Z,7.43
2018-06-08T12:11:49.053Z,6.97
2018-06-08T12:14:17.326Z,6.90
2018-06-08T12:16:45.657Z,7.57
2018-06-08T12:19:13.905Z,7.17
2018-06-08T12:21:42.313Z,6.90
2018-06-08T12:24:10.558Z,7.13
2018-06-08T12:26:38.849Z,7.83
2018-06-08T12:29:07.062Z,6.60
2018-06-08T12:31:35.302Z,6.37
2018-06-08T12:34:03.676Z,6.87
2018-06-08T12:36:31.889Z,6.20
2018-06-08T12:39:00.145Z,7.17
2018-06-08T12:41:28.361Z,4.87
2018-06-08T12:43:56.612Z,4.53
2018-06-08T12:46:24.878Z,5.80
2018-06-08T12:48:53.203Z,5.07
2018-06-08T12:51:21.448Z,5.80
2018-06-08T12:53:49.668Z,5.70
2018-06-08T12:56:17.934Z,5.60
2018-06-08T12:58:46.350Z,5.87
2018-06-08T13:01:14.622Z,5.40
2018-06-08T13:03:43.267Z,6.87
2018-06-08T13:06:11.553Z,7.47
2018-06-08T13:08:39.782Z,7.30
2018-06-08T13:11:08.006Z,7.70
2018-06-08T13:13:36.278Z,7.07
2018-06-08T13:16:04.554Z,6.73
2018-06-08T13:18:32.841Z,7.97
2018-06-08T13:21:01.194Z,7.57
2018-06-08T13:23:29.582Z,8.87
2018-06-08T13:25:57.953Z,8.87
2018-06-08T13:28:26.284Z,8.83
2018-06-08T13:30:54.548Z,8.67
2018-06-08T13:33:22.903Z,11.47
2018-06-08T13:35:51.158Z,8.73
2018-06-08T13:38:19.473Z,8.47
2018-06-08T13:40:47.786Z,8.30
2018-06-08T13:43:16.021Z,9.00
2018-06-08T13:45:44.282Z,8.90
2018-06-08T13:48:12.512Z,9.60
2018-06-08T13:50:40.732Z,10.00
2018-06-08T13:53:09.071Z,10.93
2018-06-08T13:55:37.308Z,10.93
2018-06-08T13:58:05.594Z,11.40
2018-06-08T14:00:33.837Z,10.47
2018-06-08T14:03:02.109Z,10.03
2018-06-08T14:05:30.380Z,11.83
2018-06-08T14:07:58.623Z,11.67
2018-06-08T14:10:26.855Z,11.50
2018-06-08T14:12:55.121Z,12.27
2018-06-08T14:15:23.374Z,12.77
2018-06-08T14:17:51.590Z,12.53
2018-06-08T14:20:19.845Z,14.37
2018-06-08T14:22:48.055Z,14.00
2018-06-08T14:25:16.266Z,12.37
2018-06-08T14:27:44.566Z,13.07
2018-06-08T14:30:12.796Z,12.70
2018-06-08T14:32:41.011Z,12.67
2018-06-08T14:35:09.232Z,12.33
2018-06-08T14:37:37.498Z,12.97
2018-06-08T14:40:05.722Z,13.50
2018-06-08T14:42:34.019Z,12.27
2018-06-08T14:45:02.238Z,12.90
2018-06-08T14:47:30.511Z,12.13
2018-06-08T14:49:59.016Z,11.60
2018-06-08T14:52:27.302Z,12.97
2018-06-08T14:54:55.618Z,12.83
2018-06-08T14:57:26.329Z,12.20
2018-06-08T14:59:54.604Z,12.67
2018-06-08T15:02:22.854Z,12.43
2018-06-08T15:04:51.095Z,12.93
2018-06-08T15:07:19.374Z,12.13
2018-06-08T15:09:47.650Z,12.03
2018-06-08T15:12:15.900Z,11.00
2018-06-08T15:14:44.153Z,13.07
2018-06-08T15:17:12.407Z,11.87
2018-06-08T15:19:40.887Z,11.67
2018-06-08T15:22:09.127Z,11.80
2018-06-08T15:24:37.388Z,11.57
2018-06-08T15:27:05.770Z,12.57
2018-06-08T15:29:34.042Z,12.93
2018-06-08T15:32:02.309Z,12.30
2018-06-08T15:34:30.656Z,11.23
2018-06-08T15:36:58.946Z,11.80
2018-06-08T15:39:27.246Z,12.87
2018-06-08T15:41:55.643Z,12.07
2018-06-08T15:44:23.864Z,11.60
2018-06-08T15:46:52.130Z,11.17
2018-06-08T15:49:20.489Z,11.97
2018-06-08T15:51:50.065Z,11.73
2018-06-08T15:54:18.588Z,12.37
2018-06-08T15:56:46.868Z,11.87
2018-06-08T15:59:15.228Z,12.37
2018-06-08T16:01:43.474Z,13.23
2018-06-08T16:04:11.935Z,13.23
2018-06-08T16:06:40.238Z,13.03
2018-06-08T16:09:08.521Z,12.63
2018-06-08T16:11:36.878Z,12.93
2018-06-08T16:14:05.237Z,13.67
2018-06-08T16:16:33.457Z,14.67
2018-06-08T16:19:01.699Z,13.90
2018-06-08T16:21:30.230Z,13.90
2018-06-08T16:23:58.600Z,15.33
2018-06-08T16:26:26.869Z,14.73
2018-06-08T16:28:55.151Z,15.97
2018-06-08T16:31:23.459Z,14.80
2018-06-08T16:33:51.695Z,14.50
2018-06-08T16:36:20.003Z,15.97
2018-06-08T16:38:48.566Z,14.77
2018-06-08T16:41:16.862Z,16.10
2018-06-08T16:43:45.098Z,15.83
2018-06-08T16:46:13.373Z,15.40
2018-06-08T16:48:41.699Z,14.47
2018-06-08T16:51:11.178Z,16.40
2018-06-08T16:53:40.146Z,16.93
2018-06-08T16:56:08.387Z,15.67
2018-06-08T16:58:36.618Z,15.00
2018-06-08T17:01:04.861Z,15.43
2018-06-08T17:03:33.112Z,15.87
2018-06-08T17:06:01.484Z,17.43
2018-06-08T17:08:29.732Z,16.83
2018-06-08T17:10:58.102Z,17.40
2018-06-08T17:13:26.599Z,16.57
2018-06-08T17:15:54.803Z,17.87
2018-06-08T17:18:23.120Z,17.30
2018-06-08T17:20:51.535Z,16.37
2018-06-08T17:23:19.859Z,18.07
2018-06-08T17:25:48.105Z,16.77
2018-06-08T17:28:16.391Z,18.47
2018-06-08T17:30:44.662Z,17.40
2018-06-08T17:33:12.908Z,17.77
2018-06-08T17:35:47.643Z,17.43
2018-06-08T17:38:15.877Z,15.53
2018-06-08T17:40:44.244Z,16.73
2018-06-08T17:43:12.491Z,16.70
2018-06-08T17:45:40.739Z,15.80
2018-06-08T17:48:09.075Z,15.80
2018-06-08T17:50:37.454Z,16.03
2018-06-08T17:53:05.781Z,16.77
2018-06-08T17:55:33.993Z,17.20
2018-06-08T17:58:02.454Z,18.00
2018-06-08T18:00:30.765Z,16.77
2018-06-08T18:02:59.718Z,17.07
2018-06-08T18:05:27.941Z,17.63
2018-06-08T18:07:56.243Z,18.20
2018-06-08T18:10:24.470Z,19.10
2018-06-08T18:12:52.699Z,18.87
2018-06-08T18:15:20.935Z,19.73
2018-06-08T18:17:49.272Z,20.00
2018-06-08T18:20:17.493Z,20.13
2018-06-08T18:22:46.276Z,20.20
2018-06-08T18:25:14.508Z,19.40
2018-06-08T18:27:42.789Z,20.60
2018-06-08T18:30:11.070Z,19.80
2018-06-08T18:32:39.345Z,20.60
2018-06-08T18:35:07.646Z,21.43
2018-06-08T18:37:35.946Z,22.40
2018-06-08T18:40:04.521Z,20.47
2018-06-08T18:42:32.793Z,21.00
2018-06-08T18:45:01.088Z,21.60
2018-06-08T18:47:29.376Z,22.63
2018-06-08T18:49:57.720Z,21.63
2018-06-08T18:52:25.972Z,22.97
2018-06-08T18:54:54.245Z,23.20
2018-06-08T18:57:22.588Z,21.60
2018-06-08T18:59:51.073Z,22.83
2018-06-08T19:02:19.330Z,21.77
2018-06-08T19:04:47.599Z,23.23
2018-06-08T19:07:15.924Z,21.07
2018-06-08T19:09:44.140Z,21.83
2018-06-08T19:12:12.449Z,20.90
2018-06-08T19:14:40.721Z,19.60
2018-06-08T19:17:08.975Z,21.27
2018-06-08T19:19:37.241Z,21.63
2018-06-08T19:22:05.486Z,22.47
2018-06-08T19:24:33.738Z,21.10
2018-06-08T19:27:01.982Z,22.60
2018-06-08T19:29:30.198Z,21.00
2018-06-08T19:31:58.445Z,23.00
2018-06-08T19:34:26.702Z,20.67
2018-06-08T19:36:55.014Z,21.23
2018-06-08T19:39:23.277Z,21.27
2018-06-08T19:41:51.559Z,22.63
2018-06-08T19:44:19.770Z,22.60
2018-06-08T19:46:47.986Z,22.00
2018-06-08T19:49:17.074Z,20.60
2018-06-08T19:51:45.321Z,22.43
2018-06-08T19:54:13.843Z,23.23
2018-06-08T19:56:42.059Z,20.90
2018-06-08T19:59:10.390Z,21.57
2018-06-08T20:01:38.631Z,22.10
2018-06-08T20:04:07.077Z,21.63
2018-06-08T20:06:35.319Z,21.07
2018-06-08T20:09:04.947Z,21.90
2018-06-08T20:11:33.252Z,21.60
2018-06-08T20:14:01.522Z,21.17
2018-06-08T20:16:29.853Z,21.10
2018-06-08T20:18:58.149Z,21.00
2018-06-08T20:21:26.416Z,21.77
2018-06-08T20:23:54.705Z,19.93
2018-06-08T20:26:22.980Z,20.17
2018-06-08T20:28:51.607Z,23.57
2018-06-08T20:31:19.941Z,23.07
2018-06-08T20:33:48.312Z,21.60
2018-06-08T20:36:16.767Z,21.93
2018-06-08T20:38:45.842Z,21.93
2018-06-08T20:41:14.166Z,21.63
2018-06-08T20:43:42.432Z,21.43
2018-06-08T20:46:10.784Z,21.37
2018-06-08T20:48:39.149Z,22.33
2018-06-08T20:51:07.614Z,22.80
2018-06-08T20:53:36.088Z,22.50
2018-06-08T20:56:04.576Z,22.70
2018-06-08T20:58:32.943Z,24.17
2018-06-08T21:01:01.289Z,22.80
2018-06-08T21:03:29.690Z,23.63
2018-06-08T21:05:58.079Z,22.07
2018-06-08T21:08:26.354Z,23.10
2018-06-08T21:10:54.663Z,22.67
2018-06-08T21:13:22.899Z,23.23
2018-06-08T21:15:51.203Z,23.03
2018-06-08T21:18:19.483Z,22.70
2018-06-08T21:20:47.712Z,22.40
2018-06-08T21:23:16.025Z,21.57
2018-06-08T21:25:44.341Z,21.17
2018-06-08T21:28:13.848Z,21.17
2018-06-08T21:30:42.143Z,22.10
2018-06-08T21:33:10.951Z,20.50
2018-06-08T21:35:39.521Z,23.37
2018-06-08T21:38:07.920Z,23.40
2018-06-08T21:40:36.170Z,22.97
2018-06-08T21:43:05.322Z,23.37
2018-06-08T21:45:34.703Z,23.70
2018-06-08T21:48:02.980Z,23.13
2018-06-08T21:50:31.297Z,22.10
2018-06-08T21:52:59.590Z,24.23
2018-06-08T21:55:27.922Z,23.20
2018-06-08T21:57:56.162Z,22.47
2018-06-08T22:00:24.527Z,21.77
2018-06-08T22:02:52.773Z,23.73
2018-06-08T22:05:21.289Z,23.23
2018-06-08T22:07:49.587Z,21.90
2018-06-08T22:10:17.858Z,23.70
2018-06-08T22:12:46.062Z,22.10
2018-06-08T22:15:14.395Z,25.27
2018-06-08T22:17:42.883Z,22.47
2018-06-08T22:20:11.299Z,22.60
2018-06-08T22:22:39.531Z,23.67
2018-06-08T22:25:08.208Z,24.37
2018-06-08T22:27:36.462Z,25.27
2018-06-08T22:30:04.857Z,23.47
2018-06-08T22:32:33.961Z,22.43
2018-06-08T22:35:02.280Z,23.40
2018-06-08T22:37:30.531Z,22.77
2018-06-08T22:39:59.001Z,24.80
2018-06-08T22:42:27.683Z,24.33
2018-06-08T22:44:56.111Z,24.37
2018-06-08T22:47:24.369Z,24.30
2018-06-08T22:49:52.672Z,23.77
2018-06-08T22:52:21.130Z,25.77
2018-06-08T22:54:49.856Z,23.30
2018-06-08T22:57:18.069Z,23.17
2018-06-08T22:59:46.323Z,23.63
2018-06-08T23:02:14.656Z,22.67
2018-06-08T23:04:44.149Z,22.80
2018-06-08T23:07:12.539Z,23.60
2018-06-08T23:09:40.823Z,23.20
2018-06-08T23:12:09.141Z,21.57
2018-06-08T23:14:37.471Z,23.03
2018-06-08T23:17:05.877Z,24.03
2018-06-08T23:19:34.209Z,23.63
2018-06-08T23:22:02.511Z,24.57
2018-06-08T23:24:30.895Z,25.10
2018-06-08T23:26:59.161Z,25.20
2018-06-08T23:29:27.553Z,25.20
2018-06-08T23:31:56.032Z,26.53
2018-06-08T23:34:24.310Z,25.30
2018-06-08T23:36:53.268Z,24.40
2018-06-08T23:39:21.588Z,25.13
2018-06-08T23:41:51.123Z,27.03
2018-06-08T23:44:19.574Z,26.67
2018-06-08T23:46:47.873Z,27.63
2018-06-08T23:49:16.213Z,27.10
2018-06-08T23:51:44.536Z,26.03
2018-06-08T23:54:12.813Z,28.70
2018-06-08T23:56:41.311Z,26.07
2018-06-08T23:59:09.583Z,26.57
